This is the latest recevied weather packets stored in our database for station/object KI5RAB. If no packets are shown the sender has not sent any weather packets the latest 10 day(s).
| Time | Temp. | Humidity | Pressure | Rain* | Wind** | Luminosity | Snow |
|---|---|---|---|---|---|---|---|
| 1778278871 | 25° C | 77% | 1012.2 hPa | 0 mm | - | 220 W/m² | - |
| 1778278567 | 25.56° C | 76% | 1012.2 hPa | 0 mm | - | 409 W/m² | - |
| 1778278263 | 24.44° C | 78% | 1012.4 hPa | 0 mm | - | 379 W/m² | - |
| 1778277959 | 24.44° C | 78% | 1012.4 hPa | 0 mm | - | 206 W/m² | - |
| 1778277656 | 25° C | 77% | 1012.4 hPa | 0 mm | - | 167 W/m² | - |
| 1778277353 | 23.89° C | 79% | 1012.5 hPa | 0 mm | - | 151 W/m² | - |
| 1778277050 | 23.89° C | 79% | 1012.5 hPa | 0 mm | - | 160 W/m² | - |
| 1778276747 | 23.89° C | 79% | 1012.6 hPa | 0 mm | - | 135 W/m² | - |
| 1778276443 | 24.44° C | 79% | 1012.6 hPa | 0 mm | - | 157 W/m² | - |
| 1778276141 | 24.44° C | 78% | 1012.7 hPa | 0 mm | - | 209 W/m² | - |
| 1778275836 | 24.44° C | 78% | 1012.7 hPa | 0 mm | - | 216 W/m² | - |
| 1778275533 | 24.44° C | 79% | 1012.6 hPa | 0 mm | - | 187 W/m² | - |
| 1778275229 | 24.44° C | 78% | 1012.7 hPa | 0 mm | - | 194 W/m² | - |
| 1778274925 | 24.44° C | 79% | 1012.8 hPa | 0 mm | - | 214 W/m² | - |
| 1778274622 | 23.89° C | 80% | 1013 hPa | 0 mm | - | 304 W/m² | - |
| 1778274318 | 23.89° C | 79% | 1013 hPa | 0 mm | - | 242 W/m² | - |
| 1778274016 | 23.33° C | 81% | 1013.5 hPa | 0 mm | - | 172 W/m² | - |
| 1778273713 | 23.89° C | 79% | 1013.2 hPa | 0 mm | - | 191 W/m² | - |
| 1778273409 | 24.44° C | 79% | 1013.2 hPa | 0 mm | - | 176 W/m² | - |
| 1778273106 | 23.89° C | 79% | 1013.4 hPa | 0 mm | - | 229 W/m² | - |
| 1778272801 | 23.89° C | 80% | 1013.5 hPa | 0 mm | - | 180 W/m² | - |
| 1778272498 | 23.89° C | 80% | 1013.3 hPa | 0 mm | - | 196 W/m² | - |
| 1778272193 | 23.89° C | 79% | 1013.6 hPa | 0 mm | - | 239 W/m² | - |
| 1778271891 | 23.89° C | 80% | 1013.3 hPa | 0 mm | - | 278 W/m² | - |
| 1778271588 | 23.89° C | 81% | 1013.4 hPa | 0 mm | - | 241 W/m² | - |
* Rain latest hour (hover to see other rain measurements)
** Current wind speed in m/s (hover to see current wind gust speed)